Terminal Aerodrome Forecast
Issued by NWS

Home | Current Version | Previous Version | Text Only | Print | Product List | Glossary On
Versions: 1 2 3 4 5 6 7 8 9 10 11 12 13 14 15
000
FTUS45 KRIW 231700
TAFLND
TAF
KLND 231720Z 2318/2418 14005KT P6SM VCSH SCT040 BKN110
     FM232000 26011G21KT P6SM -SHRA SCT040 BKN060
     FM240200 VRB07KT P6SM VCSH BKN050
     FM240600 VRB05KT P6SM SCT050
     FM240900 VRB03KT 6SM BR FEW005
     FM241300 VRB05KT P6SM FEW025=

USA.gov is the U.S. government's official web portal to all federal, state and local government web resources and services.